Time;durP1;ratioP1;P1;durP2;ratioP2;P2;SDS_P1;SDS_P2;PMS_P1;PMS_P2;Temp;Humidity;BMP_temperature;BMP_pressure;BME280_temperature;BME280_humidity;BME280_pressure;Samples;Min_cycle;Max_cycle;Signal;HPM_P1;HPM_P2
2021/06/05 00:02:22;;;;;;;13.43;11.32;;;26.30;93.40;;;;;;5073049;28;20028;-81
2021/06/05 00:04:58;;;;;;;14.00;12.45;;;26.20;93.40;;;;;;5072713;28;20031;-81
2021/06/05 00:07:25;;;;;;;15.10;13.35;;;26.30;93.40;;;;;;5072871;28;20030;-81
2021/06/05 00:09:52;;;;;;;15.50;13.45;;;26.20;93.40;;;;;;5073920;28;20025;-81
2021/06/05 00:12:22;;;;;;;15.50;13.55;;;26.20;93.40;;;;;;5072289;28;20080;-81
2021/06/05 00:14:48;;;;;;;15.40;13.68;;;26.30;93.40;;;;;;5039888;28;20052;-81
2021/06/05 00:17:14;;;;;;;18.00;15.00;;;26.30;93.40;;;;;;5039144;28;20090;-81
2021/06/05 00:19:39;;;;;;;16.10;13.75;;;26.30;93.40;;;;;;5072331;28;20025;-82
2021/06/05 00:22:05;;;;;;;17.88;15.43;;;26.20;93.30;;;;;;5022704;28;20111;-82
2021/06/05 00:24:31;;;;;;;19.40;15.57;;;26.30;93.40;;;;;;5056102;28;20024;-81
2021/06/05 00:26:57;;;;;;;18.90;16.10;;;26.30;93.40;;;;;;5055590;28;20086;-82
2021/06/05 00:29:23;;;;;;;17.92;15.85;;;26.30;93.40;;;;;;5022877;28;20028;-81
2021/06/05 00:31:49;;;;;;;18.17;15.48;;;26.20;93.30;;;;;;5055414;28;20029;-81
2021/06/05 00:34:15;;;;;;;20.48;16.73;;;26.30;93.40;;;;;;5022765;28;20387;-81
2021/06/05 00:36:42;;;;;;;20.15;16.70;;;26.30;93.30;;;;;;5022365;28;20045;-81
2021/06/05 00:39:12;;;;;;;20.25;17.63;;;26.20;93.30;;;;;;5072256;28;20043;-81
2021/06/05 00:41:38;;;;;;;20.05;17.88;;;26.20;93.30;;;;;;5071341;28;20028;-82
2021/06/05 00:44:08;;;;;;;20.13;17.90;;;26.20;93.30;;;;;;5073299;28;20020;-82
2021/06/05 00:46:34;;;;;;;20.42;18.10;;;26.20;93.30;;;;;;5072466;28;20029;-81
2021/06/05 00:49:01;;;;;;;22.83;19.90;;;26.20;93.30;;;;;;5038732;28;20055;-82
2021/06/05 00:51:35;;;;;;;22.20;18.73;;;26.20;93.30;;;;;;5073528;28;20029;-81
2021/06/05 00:54:02;;;;;;;24.15;19.85;;;26.20;93.30;;;;;;5072448;28;20028;-81
2021/06/05 00:56:29;;;;;;;22.83;18.83;;;26.20;93.30;;;;;;5038452;28;20047;-81
2021/06/05 00:58:54;;;;;;;21.08;18.63;;;26.20;93.30;;;;;;5038608;28;20071;-81
2021/06/05 01:01:24;;;;;;;24.70;20.63;;;26.20;93.30;;;;;;5055372;28;20547;-81
2021/06/05 01:03:51;;;;;;;24.98;19.83;;;26.20;93.30;;;;;;5072643;28;20029;-82
2021/06/05 01:06:28;;;;;;;23.35;19.98;;;26.20;93.30;;;;;;5071722;28;20059;-82
2021/06/05 01:08:58;;;;;;;24.88;20.25;;;26.20;93.30;;;;;;5054883;28;20115;-82
2021/06/05 01:11:56;;;;;;;23.60;21.05;;;26.20;93.30;;;;;;5071308;28;20051;-82
2021/06/05 01:14:51;;;;;;;25.58;21.95;;;26.20;93.30;;;;;;5053340;28;20041;-81
2021/06/05 01:17:29;;;;;;;;;;;26.20;93.30;;;;;;5073215;28;20030;-81
2021/06/05 01:20:21;;;;;;;26.67;22.83;;;26.20;93.30;;;;;;5054647;28;20353;-82
2021/06/05 01:23:11;;;;;;;25.48;22.17;;;26.10;93.30;;;;;;5054208;28;20028;-82
2021/06/05 01:25:53;;;;;;;24.63;21.45;;;26.10;93.30;;;;;;5071709;28;20545;-82
2021/06/05 01:28:36;;;;;;;26.08;22.52;;;26.10;93.30;;;;;;5072921;28;20021;-82
2021/06/05 01:31:07;;;;;;;23.88;21.13;;;26.10;93.30;;;;;;5072822;28;20027;-82
2021/06/05 01:33:34;;;;;;;26.35;22.83;;;26.10;93.30;;;;;;5071551;28;20025;-82
2021/06/05 01:36:02;;;;;;;24.35;21.23;;;26.10;93.30;;;;;;5054902;28;20044;-82
2021/06/05 01:38:29;;;;;;;22.85;20.42;;;26.10;93.30;;;;;;5072405;28;20078;-82
2021/06/05 01:40:56;;;;;;;22.85;20.27;;;26.10;93.30;;;;;;5054402;28;20036;-82
2021/06/05 01:43:25;;;;;;;24.83;20.42;;;26.10;93.30;;;;;;5072512;28;20028;-82
2021/06/05 01:45:52;;;;;;;24.85;20.20;;;26.10;93.30;;;;;;5072238;28;20036;-82
2021/06/05 01:48:19;;;;;;;22.00;19.20;;;26.10;93.30;;;;;;5072458;28;20031;-82
2021/06/05 01:50:46;;;;;;;26.90;20.98;;;26.10;93.30;;;;;;5054459;28;20054;-82
2021/06/05 01:53:26;;;;;;;23.27;19.92;;;26.00;93.30;;;;;;5072971;28;20373;-82
2021/06/05 01:56:04;;;;;;;22.40;18.55;;;26.10;93.30;;;;;;5076019;28;20553;-82
2021/06/05 01:58:32;;;;;;;25.63;19.88;;;26.10;93.30;;;;;;5076496;28;20028;-82
2021/06/05 02:00:59;;;;;;;22.20;19.38;;;26.10;93.30;;;;;;5074497;28;20094;-81
2021/06/05 02:03:26;;;;;;;21.02;18.73;;;26.00;93.30;;;;;;5042063;28;20101;-80
2021/06/05 02:05:52;;;;;;;20.52;17.70;;;26.00;93.30;;;;;;5076258;28;20151;-82
2021/06/05 02:08:22;;;;;;;22.08;18.27;;;26.00;93.30;;;;;;5058229;28;20482;-82
2021/06/05 02:10:48;;;;;;;20.48;17.52;;;26.00;93.30;;;;;;5075824;28;20024;-82
2021/06/05 02:13:44;;;;;;;22.55;18.45;;;26.00;93.30;;;;;;5058131;28;20053;-82
2021/06/05 02:16:18;;;;;;;22.10;18.42;;;26.00;93.30;;;;;;5075984;28;20033;-82
2021/06/05 02:18:49;;;;;;;21.55;18.17;;;26.00;93.30;;;;;;5076138;28;20021;-81
2021/06/05 02:21:18;;;;;;;21.80;17.70;;;26.00;93.30;;;;;;5076187;28;20078;-81
2021/06/05 02:23:47;;;;;;;21.52;17.67;;;26.00;93.30;;;;;;5074691;28;20020;-83
2021/06/05 02:26:17;;;;;;;19.08;16.35;;;26.00;93.30;;;;;;5075056;28;20024;-83
2021/06/05 02:28:48;;;;;;;19.02;16.45;;;26.00;93.30;;;;;;5074986;28;20020;-82
2021/06/05 02:31:14;;;;;;;18.17;15.85;;;26.00;93.30;;;;;;5058678;28;20029;-81
2021/06/05 02:33:41;;;;;;;18.80;16.80;;;26.00;93.30;;;;;;5057847;28;20504;-82
2021/06/05 02:36:10;;;;;;;18.63;16.42;;;26.00;93.30;;;;;;5075706;28;20056;-81
2021/06/05 02:38:40;;;;;;;19.17;15.63;;;26.00;93.30;;;;;;5058811;28;20089;-82
2021/06/05 02:41:17;;;;;;;20.45;16.45;;;26.00;93.30;;;;;;5074371;28;20028;-82
2021/06/05 02:43:44;;;;;;;18.42;15.75;;;26.00;93.30;;;;;;5076038;28;20028;-81
2021/06/05 02:46:18;;;;;;;16.83;15.10;;;26.00;93.30;;;;;;5057460;28;20039;-81
2021/06/05 02:49:20;;;;;;;18.35;16.38;;;26.00;93.30;;;;;;5076229;28;20028;-82
2021/06/05 02:51:51;;;;;;;18.55;16.48;;;26.00;93.30;;;;;;5056538;28;20029;-81
2021/06/05 02:54:19;;;;;;;19.27;16.08;;;26.00;93.30;;;;;;5074435;28;20054;-81
2021/06/05 02:56:46;;;;;;;18.10;16.05;;;26.00;93.60;;;;;;5075162;28;20041;-81
2021/06/05 02:59:12;;;;;;;17.58;15.63;;;26.00;93.30;;;;;;5057345;28;20103;-81
2021/06/05 03:01:38;;;;;;;18.58;15.50;;;26.00;93.30;;;;;;5040965;28;20102;-80
2021/06/05 03:04:04;;;;;;;17.67;15.52;;;26.00;93.30;;;;;;5057157;28;20044;-81
2021/06/05 03:06:31;;;;;;;17.48;15.52;;;26.00;93.30;;;;;;5057053;28;20036;-81
2021/06/05 03:08:58;;;;;;;17.95;15.35;;;26.00;93.30;;;;;;5074785;28;20508;-82
2021/06/05 03:11:25;;;;;;;17.40;15.07;;;25.90;93.30;;;;;;5074741;28;20042;-81
2021/06/05 03:13:51;;;;;;;18.38;15.80;;;25.90;93.30;;;;;;5071940;28;20050;-81
2021/06/05 03:16:18;;;;;;;17.90;15.73;;;26.00;93.30;;;;;;5073788;28;20033;-82
2021/06/05 03:18:45;;;;;;;18.00;15.90;;;26.00;93.60;;;;;;5056305;28;20040;-82
2021/06/05 03:21:15;;;;;;;18.55;15.82;;;25.90;93.30;;;;;;5039298;28;20040;-82
2021/06/05 03:23:42;;;;;;;17.00;14.55;;;25.90;93.30;;;;;;5072830;28;20060;-81
2021/06/05 03:26:08;;;;;;;18.25;15.55;;;25.90;93.30;;;;;;5055748;28;20064;-82
2021/06/05 03:28:35;;;;;;;17.20;14.55;;;25.90;93.30;;;;;;5072717;28;20068;-81
2021/06/05 03:31:02;;;;;;;17.27;14.63;;;25.90;93.30;;;;;;5038744;28;20052;-82
2021/06/05 03:33:29;;;;;;;15.40;13.77;;;25.90;93.30;;;;;;5073892;28;20035;-81
2021/06/05 03:35:55;;;;;;;16.67;14.38;;;25.90;93.30;;;;;;5073338;28;21987;-82
2021/06/05 03:38:23;;;;;;;16.60;14.02;;;25.90;93.30;;;;;;5072102;28;20035;-81
2021/06/05 03:40:49;;;;;;;15.02;13.43;;;25.90;93.30;;;;;;5073751;28;20032;-81
2021/06/05 03:43:15;;;;;;;14.13;12.50;;;25.90;93.30;;;;;;5055358;28;20020;-81
2021/06/05 03:45:41;;;;;;;15.95;12.38;;;25.90;93.30;;;;;;5055782;28;20031;-81
2021/06/05 03:48:08;;;;;;;15.93;13.45;;;25.90;93.30;;;;;;5072021;28;20025;-81
2021/06/05 03:50:42;;;;;;;14.32;12.82;;;25.90;93.30;;;;;;5073329;28;20031;-81
2021/06/05 03:53:08;;;;;;;13.68;12.25;;;25.90;93.30;;;;;;5071941;28;20021;-81
2021/06/05 03:55:34;;;;;;;14.13;12.52;;;25.90;93.30;;;;;;5055398;28;20035;-81
2021/06/05 03:58:01;;;;;;;15.63;12.95;;;25.90;93.30;;;;;;5054439;28;20044;-81
2021/06/05 04:00:31;;;;;;;14.15;12.65;;;25.90;93.30;;;;;;5056085;28;20039;-80
2021/06/05 04:02:56;;;;;;;15.55;13.32;;;25.90;93.30;;;;;;5071974;28;20031;-81
2021/06/05 04:05:23;;;;;;;13.07;11.70;;;25.90;93.30;;;;;;5038420;28;20124;-80
2021/06/05 04:07:48;;;;;;;14.90;12.40;;;25.90;93.30;;;;;;5071977;28;20033;-80
2021/06/05 04:10:15;;;;;;;13.07;11.52;;;25.90;93.30;;;;;;5071658;28;20950;-80
2021/06/05 04:12:41;;;;;;;13.70;12.10;;;25.90;93.30;;;;;;5051343;28;180097;-80
2021/06/05 04:15:09;;;;;;;13.15;11.75;;;25.80;93.20;;;;;;5071674;28;20429;-81
2021/06/05 04:17:35;;;;;;;12.52;11.23;;;25.90;93.30;;;;;;5038582;28;20028;-81
2021/06/05 04:20:03;;;;;;;12.82;11.38;;;25.90;93.30;;;;;;5055856;28;20116;-81
2021/06/05 04:22:29;;;;;;;12.27;11.00;;;25.90;93.30;;;;;;5056437;28;20056;-81
2021/06/05 04:24:54;;;;;;;13.50;11.55;;;25.90;93.30;;;;;;5071967;28;20064;-81
2021/06/05 04:27:20;;;;;;;13.48;11.68;;;25.90;93.30;;;;;;5055406;28;20068;-81
2021/06/05 04:29:46;;;;;;;12.95;11.63;;;25.90;93.30;;;;;;5074016;28;20042;-81
2021/06/05 04:32:11;;;;;;;11.52;10.27;;;25.90;93.30;;;;;;5055342;28;20368;-81
2021/06/05 04:34:37;;;;;;;12.40;11.00;;;25.90;93.30;;;;;;5073987;28;20032;-81
2021/06/05 04:37:03;;;;;;;11.95;10.70;;;25.90;93.30;;;;;;5071972;28;20036;-82
2021/06/05 04:39:29;;;;;;;10.82;9.73;;;25.90;93.30;;;;;;5055944;28;20036;-82
2021/06/05 04:41:55;;;;;;;11.77;10.43;;;25.90;93.30;;;;;;5055701;28;20033;-82
2021/06/05 04:44:21;;;;;;;11.25;10.05;;;25.90;93.30;;;;;;5072815;28;20107;-82
2021/06/05 04:46:46;;;;;;;12.38;10.68;;;25.90;93.20;;;;;;5073469;28;20032;-82
2021/06/05 04:49:12;;;;;;;11.93;9.85;;;25.90;93.20;;;;;;5073114;28;20107;-81
2021/06/05 04:51:39;;;;;;;11.25;10.05;;;25.90;93.20;;;;;;5055372;28;20032;-81
2021/06/05 04:54:05;;;;;;;11.25;10.15;;;25.90;93.20;;;;;;5071740;28;20089;-82
2021/06/05 04:56:49;;;;;;;11.38;9.82;;;25.90;93.30;;;;;;5073322;28;20537;-81
2021/06/05 04:59:17;;;;;;;11.57;10.38;;;25.90;93.30;;;;;;5071821;28;20032;-81
2021/06/05 05:01:43;;;;;;;11.73;10.40;;;25.90;93.20;;;;;;5073155;28;20032;-81
2021/06/05 05:04:09;;;;;;;11.82;9.73;;;25.90;93.30;;;;;;5054941;28;20032;-81
2021/06/05 05:06:34;;;;;;;11.48;10.23;;;25.90;93.30;;;;;;5072890;28;20386;-81
2021/06/05 05:09:00;;;;;;;11.00;9.43;;;25.90;93.30;;;;;;5054835;28;20024;-84
2021/06/05 05:11:27;;;;;;;11.23;10.13;;;25.90;93.30;;;;;;5054859;28;20056;-81
2021/06/05 05:13:52;;;;;;;11.38;9.88;;;25.90;93.30;;;;;;5073409;28;20059;-81
2021/06/05 05:16:19;;;;;;;10.73;9.63;;;25.90;93.30;;;;;;5054509;28;20439;-81
2021/06/05 05:18:47;;;;;;;10.27;9.02;;;25.90;93.30;;;;;;5071663;28;20035;-81
2021/06/05 05:21:17;;;;;;;11.00;9.70;;;25.90;93.30;;;;;;5072655;28;20032;-81
2021/06/05 05:23:43;;;;;;;10.35;9.25;;;25.90;93.30;;;;;;5071908;28;20059;-80
2021/06/05 05:26:10;;;;;;;9.75;8.63;;;25.80;93.20;;;;;;5072530;28;20060;-81
2021/06/05 05:28:36;;;;;;;10.48;9.38;;;25.80;93.30;;;;;;5054764;28;20028;-80
2021/06/05 05:31:05;;;;;;;9.68;8.38;;;25.90;93.30;;;;;;5072514;28;20051;-85
2021/06/05 05:33:37;;;;;;;9.98;8.98;;;25.80;93.30;;;;;;5071603;28;20028;-81
2021/06/05 05:36:07;;;;;;;9.38;8.38;;;25.90;93.30;;;;;;5072243;28;20487;-84
2021/06/05 05:38:32;;;;;;;9.48;8.48;;;25.80;93.20;;;;;;5071182;28;20062;-82
2021/06/05 05:40:58;;;;;;;9.93;8.77;;;25.80;93.30;;;;;;5072525;28;20032;-81
2021/06/05 05:43:24;;;;;;;11.05;9.35;;;25.90;93.30;;;;;;5054387;28;20055;-80
2021/06/05 05:45:49;;;;;;;9.63;8.35;;;25.80;93.30;;;;;;5054863;28;20406;-80
2021/06/05 05:48:16;;;;;;;9.32;8.35;;;25.80;93.30;;;;;;5054519;28;20052;-81
2021/06/05 05:50:44;;;;;;;9.05;7.88;;;25.80;93.30;;;;;;5054652;28;20049;-81
2021/06/05 05:53:10;;;;;;;9.50;8.50;;;25.80;93.30;;;;;;5072078;28;20052;-81
2021/06/05 05:55:36;;;;;;;8.82;8.02;;;25.80;93.30;;;;;;5072936;28;20052;-81
2021/06/05 05:58:08;;;;;;;10.43;8.40;;;25.80;93.30;;;;;;5072257;28;20032;-81
2021/06/05 06:00:36;;;;;;;10.95;7.90;;;25.80;93.30;;;;;;5071510;28;20025;-80
2021/06/05 06:03:03;;;;;;;9.18;7.95;;;25.80;93.30;;;;;;5072966;28;20048;-80
2021/06/05 06:05:28;;;;;;;8.50;7.13;;;25.80;93.30;;;;;;5070882;28;20033;-80
2021/06/05 06:07:55;;;;;;;8.93;7.85;;;25.80;93.30;;;;;;5071363;28;20462;-80
2021/06/05 06:10:22;;;;;;;7.68;6.53;;;25.80;93.30;;;;;;5072247;28;20024;-82
2021/06/05 06:12:47;;;;;;;8.60;7.60;;;25.80;93.30;;;;;;5070563;28;20057;-81
2021/06/05 06:15:17;;;;;;;9.02;8.02;;;25.80;93.30;;;;;;5054397;28;20182;-82
2021/06/05 06:17:46;;;;;;;8.70;7.80;;;25.80;93.30;;;;;;5072388;28;20032;-81
2021/06/05 06:20:24;;;;;;;9.20;8.15;;;25.80;93.30;;;;;;5054291;28;20036;-81
2021/06/05 06:22:50;;;;;;;7.75;6.95;;;25.80;93.30;;;;;;5072389;28;20067;-81
2021/06/05 06:25:20;;;;;;;8.23;6.90;;;25.70;93.30;;;;;;5021038;28;20033;-81
2021/06/05 06:27:47;;;;;;;7.93;7.13;;;25.70;93.30;;;;;;5072323;28;20031;-81
2021/06/05 06:30:18;;;;;;;7.10;6.40;;;25.70;93.30;;;;;;5070730;28;20508;-81
2021/06/05 06:32:48;;;;;;;7.90;7.10;;;25.80;93.30;;;;;;5054198;28;20029;-83
2021/06/05 06:35:14;;;;;;;8.35;7.18;;;25.80;93.30;;;;;;5070905;28;20131;-84
2021/06/05 06:37:40;;;;;;;7.90;7.10;;;25.80;93.30;;;;;;5021109;28;20060;-84
2021/06/05 06:40:06;;;;;;;7.78;6.88;;;25.80;93.30;;;;;;5038687;28;20059;-84
2021/06/05 06:42:32;;;;;;;7.93;7.13;;;25.70;93.30;;;;;;5057761;28;20032;-83
2021/06/05 06:44:57;;;;;;;8.07;7.25;;;25.70;93.40;;;;;;5024442;28;20489;-84
2021/06/05 06:47:23;;;;;;;7.95;7.15;;;25.80;93.50;;;;;;5057693;28;20070;-83
2021/06/05 06:49:49;;;;;;;8.07;7.28;;;25.80;93.50;;;;;;5025165;28;20458;-83
2021/06/05 06:52:15;;;;;;;8.52;7.57;;;25.80;93.60;;;;;;5057431;28;20458;-83
2021/06/05 06:54:41;;;;;;;10.38;7.65;;;25.80;93.60;;;;;;5057704;28;20040;-83
2021/06/05 06:57:07;;;;;;;9.45;7.38;;;25.80;93.60;;;;;;5041153;28;20037;-83
2021/06/05 06:59:33;;;;;;;7.25;6.43;;;25.80;93.60;;;;;;5040764;28;20032;-83
2021/06/05 07:01:59;;;;;;;8.48;7.32;;;25.70;93.60;;;;;;5073982;28;20394;-83
2021/06/05 07:04:25;;;;;;;8.25;7.25;;;25.80;93.60;;;;;;5057454;28;20036;-83
2021/06/05 07:06:50;;;;;;;7.93;6.72;;;25.70;93.60;;;;;;5041000;28;20032;-82
2021/06/05 07:09:16;;;;;;;7.85;7.05;;;25.70;93.60;;;;;;5024201;28;20028;-83
2021/06/05 07:11:42;;;;;;;8.57;6.57;;;25.70;93.70;;;;;;5056873;28;20053;-83
2021/06/05 07:14:08;;;;;;;7.93;7.13;;;25.70;93.70;;;;;;5041112;28;20386;-83
2021/06/05 07:16:37;;;;;;;7.90;6.90;;;25.70;93.70;;;;;;5075000;28;20029;-83
2021/06/05 07:19:04;;;;;;;8.63;7.32;;;25.70;93.70;;;;;;5073885;28;20478;-83
2021/06/05 07:21:30;;;;;;;7.78;7.03;;;25.70;93.70;;;;;;5040763;28;20104;-83
2021/06/05 07:23:56;;;;;;;7.50;6.72;;;25.70;93.60;;;;;;5040646;28;20132;-83
2021/06/05 07:26:26;;;;;;;7.97;7.18;;;25.70;93.60;;;;;;5023714;28;20037;-82
2021/06/05 07:28:54;;;;;;;8.35;7.05;;;25.70;93.60;;;;;;5073912;28;20054;-83
2021/06/05 07:31:30;;;;;;;7.57;6.78;;;25.70;93.60;;;;;;5073113;28;20519;-84
2021/06/05 07:33:56;;;;;;;7.85;6.97;;;25.70;93.60;;;;;;5074769;28;20028;-83
2021/06/05 07:36:27;;;;;;;8.55;7.18;;;25.70;93.60;;;;;;5074287;28;20028;-83
2021/06/05 07:38:53;;;;;;;8.63;7.53;;;25.70;93.60;;;;;;5073735;28;20055;-83
2021/06/05 07:41:19;;;;;;;9.23;8.00;;;25.70;93.60;;;;;;5023507;28;20470;-82
2021/06/05 07:43:44;;;;;;;9.40;7.65;;;25.70;93.60;;;;;;5074951;28;20021;-84
2021/06/05 07:46:10;;;;;;;7.45;6.75;;;25.70;93.60;;;;;;5023809;28;20032;-83
2021/06/05 07:48:36;;;;;;;7.95;6.95;;;25.70;93.60;;;;;;5056606;28;20039;-84
2021/06/05 07:51:05;;;;;;;8.77;7.28;;;25.70;93.60;;;;;;5056546;28;20474;-82
2021/06/05 07:53:31;;;;;;;7.80;7.00;;;25.70;93.60;;;;;;5073695;28;20025;-82
2021/06/05 07:55:57;;;;;;;7.88;7.07;;;25.70;93.60;;;;;;5073080;28;20047;-81
2021/06/05 07:58:22;;;;;;;8.95;7.57;;;25.70;93.70;;;;;;5072691;28;20462;-83
2021/06/05 08:00:48;;;;;;;8.55;7.50;;;25.70;93.60;;;;;;5055194;28;20379;-83
2021/06/05 08:03:14;;;;;;;8.40;7.60;;;25.70;93.70;;;;;;5056039;28;20472;-82
2021/06/05 08:05:40;;;;;;;8.13;7.32;;;25.70;93.70;;;;;;5039586;28;20458;-83
2021/06/05 08:08:09;;;;;;;8.30;7.10;;;25.70;93.80;;;;;;5056408;28;20039;-83
2021/06/05 08:10:36;;;;;;;9.68;7.95;;;25.70;93.70;;;;;;5055917;28;20116;-82
2021/06/05 08:13:02;;;;;;;9.02;7.57;;;25.70;93.70;;;;;;5052480;28;20045;-83
2021/06/05 08:15:31;;;;;;;9.50;7.88;;;25.70;93.70;;;;;;5052681;28;20033;-82
2021/06/05 08:17:57;;;;;;;8.75;7.55;;;25.70;93.70;;;;;;5052498;28;20044;-83
2021/06/05 08:20:30;;;;;;;9.32;7.47;;;25.70;93.70;;;;;;5035953;28;20036;-82
2021/06/05 08:22:59;;;;;;;9.45;7.85;;;25.70;93.70;;;;;;5052966;28;20025;-82
2021/06/05 08:25:25;;;;;;;8.98;8.07;;;25.70;93.70;;;;;;5036167;28;20033;-83
2021/06/05 08:27:52;;;;;;;9.43;8.30;;;25.70;93.70;;;;;;5053614;28;20103;-82
2021/06/05 08:30:26;;;;;;;9.68;8.40;;;25.70;93.70;;;;;;5035919;28;20108;-82
2021/06/05 08:32:51;;;;;;;9.57;7.93;;;25.70;93.70;;;;;;5053913;28;20151;-83
2021/06/05 08:35:17;;;;;;;14.25;9.77;;;25.70;93.70;;;;;;5052460;28;20080;-82
2021/06/05 08:37:43;;;;;;;11.65;8.98;;;25.70;93.70;;;;;;5053628;28;20037;-82
2021/06/05 08:40:14;;;;;;;12.32;9.27;;;25.70;93.70;;;;;;5053625;28;20045;-83
2021/06/05 08:42:50;;;;;;;12.65;9.65;;;25.70;93.70;;;;;;5053364;28;20025;-83
2021/06/05 08:45:21;;;;;;;12.57;9.43;;;25.70;93.70;;;;;;5054085;28;20029;-83
2021/06/05 08:47:47;;;;;;;12.27;9.00;;;25.70;93.70;;;;;;5051986;28;20029;-86
2021/06/05 08:50:23;;;;;;;14.20;10.38;;;25.70;93.70;;;;;;5052253;28;20025;-81
2021/06/05 08:53:11;;;;;;;14.15;9.27;;;25.70;93.70;;;;;;5053515;28;20063;-82
2021/06/05 08:55:56;;;;;;;12.50;9.68;;;25.70;93.70;;;;;;5051722;28;20029;-82
2021/06/05 08:58:31;;;;;;;12.88;9.40;;;25.70;93.70;;;;;;5053433;28;20116;-84
2021/06/05 09:01:05;;;;;;;11.38;8.63;;;25.70;93.70;;;;;;5052063;28;20029;-83
2021/06/05 09:03:34;;;;;;;10.57;8.25;;;25.70;93.70;;;;;;5051341;28;20032;-83
2021/06/05 09:06:07;;;;;;;12.20;8.55;;;25.70;93.70;;;;;;5052436;28;20068;-82
2021/06/05 09:08:33;;;;;;;12.00;8.90;;;25.70;93.60;;;;;;5051487;28;20383;-83
2021/06/05 09:11:01;;;;;;;9.93;7.65;;;25.70;93.60;;;;;;5051395;28;20025;-82
2021/06/05 09:13:28;;;;;;;9.18;7.13;;;25.70;93.60;;;;;;5069808;28;20053;-82
2021/06/05 09:16:18;;;;;;;8.57;6.80;;;25.70;93.60;;;;;;5055086;28;20029;-83
2021/06/05 09:18:49;;;;;;;8.55;6.72;;;25.70;93.60;;;;;;5054777;28;20032;-83
2021/06/05 09:21:25;;;;;;;10.07;7.00;;;25.70;93.60;;;;;;5072703;28;20458;-82
2021/06/05 09:23:51;;;;;;;9.75;7.32;;;25.70;93.60;;;;;;5054453;28;20457;-83
2021/06/05 09:26:25;;;;;;;10.30;7.63;;;25.70;93.60;;;;;;5054959;28;20119;-81
2021/06/05 09:29:18;;;;;;;9.93;7.00;;;25.70;93.60;;;;;;5054919;28;20098;-81
2021/06/05 09:32:14;;;;;;;9.20;6.85;;;25.70;93.50;;;;;;5072561;28;20052;-82
2021/06/05 09:34:50;;;;;;;10.55;8.07;;;25.70;93.50;;;;;;5070896;28;20082;-81
2021/06/05 09:37:37;;;;;;;11.38;8.50;;;25.70;93.50;;;;;;5054817;28;20482;-83
2021/06/05 09:40:08;;;;;;;9.60;7.70;;;25.70;93.50;;;;;;5072789;28;20028;-82
2021/06/05 09:42:42;;;;;;;10.30;8.65;;;25.70;93.50;;;;;;5072100;28;20386;-82
2021/06/05 09:45:20;;;;;;;8.88;7.40;;;25.70;93.40;;;;;;5054832;28;20044;-82
2021/06/05 09:47:45;;;;;;;9.93;8.23;;;25.70;93.40;;;;;;5072664;28;20112;-82
2021/06/05 09:50:36;;;;;;;10.50;8.57;;;25.70;93.40;;;;;;5055015;28;20514;-82
2021/06/05 09:53:25;;;;;;;12.40;9.45;;;25.70;93.40;;;;;;5054750;28;20089;-83
2021/06/05 09:55:51;;;;;;;11.25;9.07;;;25.70;93.40;;;;;;5054374;28;20116;-82
2021/06/05 09:58:37;;;;;;;11.77;9.82;;;25.70;93.40;;;;;;5054597;28;20131;-82
2021/06/05 10:01:38;;;;;;;15.48;10.77;;;25.70;93.30;;;;;;5054708;28;20451;-81
2021/06/05 10:04:16;;;;;;;13.00;10.02;;;25.70;93.30;;;;;;4990836;28;20036;-82
2021/06/05 10:06:45;;;;;;;13.50;10.35;;;25.70;93.30;;;;;;5044265;28;20033;-83
2021/06/05 10:09:27;;;;;;;14.27;10.65;;;25.70;93.30;;;;;;5072849;28;20580;-84
2021/06/05 10:12:00;;;;;;;12.13;9.98;;;25.70;93.30;;;;;;5071999;28;20052;-84
2021/06/05 10:14:48;;;;;;;14.77;10.73;;;25.70;93.30;;;;;;5072570;28;20025;-83
2021/06/05 10:17:53;;;;;;;13.93;10.63;;;25.70;93.30;;;;;;5076472;28;20028;-83
2021/06/05 10:20:34;;;;;;;13.88;10.95;;;25.70;93.20;;;;;;5058364;28;20090;-82
2021/06/05 10:23:00;;;;;;;13.88;10.88;;;25.70;93.20;;;;;;5076346;28;20056;-82
2021/06/05 10:25:42;;;;;;;14.43;11.50;;;25.70;93.20;;;;;;5058171;28;20028;-81
2021/06/05 10:28:12;;;;;;;15.93;12.57;;;25.70;93.20;;;;;;5076013;28;20107;-82
2021/06/05 10:30:47;;;;;;;16.33;13.07;;;25.70;93.20;;;;;;5057992;28;20029;-81
2021/06/05 10:33:42;;;;;;;18.85;14.95;;;25.70;93.20;;;;;;5058111;28;20032;-81
2021/06/05 10:36:30;;;;;;;19.20;15.65;;;25.70;93.20;;;;;;5055493;28;20441;-82
2021/06/05 10:39:09;;;;;;;22.08;16.67;;;25.70;93.20;;;;;;5057735;28;20474;-82
2021/06/05 10:41:42;;;;;;;24.17;18.33;;;25.70;93.20;;;;;;5075520;28;20032;-83
2021/06/05 10:44:08;;;;;;;24.45;18.55;;;25.70;93.20;;;;;;5075948;28;20029;-81
2021/06/05 10:47:01;;;;;;;26.63;19.33;;;25.70;93.20;;;;;;5058160;28;20039;-85
2021/06/05 10:49:35;;;;;;;26.75;20.63;;;25.70;93.20;;;;;;5057849;28;20482;-83
2021/06/05 10:52:29;;;;;;;28.40;21.67;;;25.70;93.30;;;;;;5075598;28;20017;-82
2021/06/05 10:55:06;;;;;;;28.08;21.73;;;25.70;93.20;;;;;;5057491;28;20037;-83
2021/06/05 10:57:44;;;;;;;29.42;22.67;;;25.70;93.30;;;;;;5057625;28;20043;-82
2021/06/05 11:00:42;;;;;;;27.95;22.58;;;25.70;93.20;;;;;;5057816;28;20037;-82
2021/06/05 11:03:10;;;;;;;30.40;24.02;;;25.70;93.20;;;;;;5075336;28;20056;-82
2021/06/05 11:05:36;;;;;;;28.73;23.92;;;25.70;93.30;;;;;;5057429;28;20024;-85
2021/06/05 11:08:08;;;;;;;29.52;23.15;;;25.70;93.30;;;;;;5057450;28;20082;-83
2021/06/05 11:11:06;;;;;;;29.60;23.50;;;25.70;93.30;;;;;;5057640;28;20043;-82
2021/06/05 11:13:32;;;;;;;30.33;23.80;;;25.70;93.20;;;;;;5042502;28;20049;-82
2021/06/05 11:16:00;;;;;;;32.22;25.90;;;25.70;93.30;;;;;;5057017;28;20524;-82
2021/06/05 11:18:39;;;;;;;29.63;23.83;;;25.70;93.30;;;;;;5057338;28;20025;-82
2021/06/05 11:21:23;;;;;;;30.58;24.13;;;25.70;93.30;;;;;;5057256;28;20025;-83
2021/06/05 11:23:57;;;;;;;27.00;23.02;;;25.70;93.50;;;;;;5057025;28;20119;-82
2021/06/05 11:26:38;;;;;;;28.40;23.25;;;25.70;93.20;;;;;;5074660;28;20074;-83
2021/06/05 11:29:27;;;;;;;29.92;23.65;;;25.70;93.30;;;;;;5056574;28;20078;-83
2021/06/05 11:31:58;;;;;;;29.25;23.13;;;25.70;93.30;;;;;;5046011;28;20028;-82
2021/06/05 11:34:33;;;;;;;29.30;23.40;;;25.70;93.30;;;;;;5057062;28;20085;-83
2021/06/05 11:37:02;;;;;;;27.63;22.42;;;25.70;93.30;;;;;;5056828;28;20039;-82
2021/06/05 11:39:30;;;;;;;24.77;21.02;;;25.70;93.30;;;;;;5056961;28;20032;-82
2021/06/05 11:42:04;;;;;;;28.35;21.33;;;25.70;93.30;;;;;;5056323;28;20024;-82
2021/06/05 11:44:35;;;;;;;28.13;21.38;;;25.70;93.20;;;;;;5074754;28;20025;-82
2021/06/05 11:47:21;;;;;;;25.65;20.45;;;25.70;93.20;;;;;;5056513;28;20506;-82
2021/06/05 11:49:53;;;;;;;24.27;19.75;;;25.70;93.20;;;;;;5042760;28;20040;-82
2021/06/05 11:52:32;;;;;;;23.50;19.80;;;25.70;93.20;;;;;;5056549;28;20032;-82
2021/06/05 11:55:21;;;;;;;23.95;19.30;;;25.70;93.20;;;;;;5074491;28;20020;-82
2021/06/05 11:57:52;;;;;;;22.45;18.17;;;25.70;93.20;;;;;;5063471;28;20501;-82
2021/06/05 12:00:32;;;;;;;22.65;19.02;;;25.70;93.20;;;;;;5074204;28;20501;-81
2021/06/05 12:03:02;;;;;;;22.98;18.38;;;25.70;93.20;;;;;;5056229;28;20028;-82
2021/06/05 12:05:31;;;;;;;22.60;18.33;;;25.70;93.20;;;;;;5056773;28;20032;-82
2021/06/05 12:07:56;;;;;;;20.20;16.63;;;25.70;93.20;;;;;;5073810;28;20024;-82
2021/06/05 12:10:31;;;;;;;20.95;16.98;;;25.70;93.20;;;;;;5056357;28;20047;-81
2021/06/05 12:12:57;;;;;;;19.40;16.08;;;25.70;93.20;;;;;;5053989;28;20044;-82
2021/06/05 12:15:31;;;;;;;20.35;15.98;;;25.70;93.20;;;;;;5074395;28;20032;-81
2021/06/05 12:18:05;;;;;;;17.92;14.57;;;25.70;93.20;;;;;;5073964;28;20036;-80
2021/06/05 12:20:50;;;;;;;19.70;15.75;;;25.70;93.20;;;;;;5074419;28;20497;-81
2021/06/05 12:23:24;;;;;;;19.23;15.48;;;25.70;93.20;;;;;;5074261;28;20020;-81
2021/06/05 12:25:50;;;;;;;18.40;14.45;;;25.70;93.20;;;;;;5073914;28;20526;-81
2021/06/05 12:28:26;;;;;;;16.40;13.95;;;25.70;93.20;;;;;;5073876;28;20044;-81
2021/06/05 12:30:54;;;;;;;16.63;14.35;;;25.70;93.20;;;;;;5055754;28;20029;-81
2021/06/05 12:33:33;;;;;;;18.85;14.93;;;25.70;93.20;;;;;;5056133;28;20061;-81
2021/06/05 12:36:02;;;;;;;16.05;14.27;;;25.70;93.20;;;;;;5073740;28;20025;-81
2021/06/05 12:38:38;;;;;;;17.20;13.88;;;25.70;93.20;;;;;;5073605;28;20037;-81
2021/06/05 12:41:11;;;;;;;17.13;13.77;;;25.70;93.20;;;;;;5073129;28;20056;-81
2021/06/05 12:43:41;;;;;;;14.80;13.13;;;25.70;93.20;;;;;;5073604;28;20104;-81
2021/06/05 12:46:09;;;;;;;17.08;13.23;;;25.70;93.20;;;;;;5073862;28;20029;-80
2021/06/05 12:48:36;;;;;;;17.95;13.85;;;25.70;93.20;;;;;;5055505;28;20475;-81
2021/06/05 12:51:05;;;;;;;18.27;13.63;;;25.70;93.20;;;;;;5055890;28;20055;-81
2021/06/05 12:53:31;;;;;;;16.83;13.23;;;25.70;93.20;;;;;;5064472;28;20024;-81